createdAt,value
2017-08-01T00:01:58.310Z,20.52
2017-08-01T00:04:25.707Z,20.48
2017-08-01T00:06:53.111Z,20.47
2017-08-01T00:09:20.510Z,20.44
2017-08-01T00:11:47.950Z,20.36
2017-08-01T00:14:15.345Z,20.32
2017-08-01T00:16:42.732Z,20.34
2017-08-01T00:19:10.144Z,20.36
2017-08-01T00:21:37.534Z,20.36
2017-08-01T00:24:04.942Z,20.31
2017-08-01T00:26:32.347Z,20.26
2017-08-01T00:28:59.758Z,20.26
2017-08-01T00:31:27.158Z,20.28
2017-08-01T00:33:54.556Z,20.27
2017-08-01T00:36:22.105Z,20.27
2017-08-01T00:38:49.542Z,20.28
2017-08-01T00:41:16.940Z,20.24
2017-08-01T00:43:44.342Z,20.26
2017-08-01T00:46:11.739Z,20.23
2017-08-01T00:48:39.294Z,20.21
2017-08-01T00:51:06.698Z,20.18
2017-08-01T00:53:34.094Z,20.14
2017-08-01T00:56:01.538Z,20.15
2017-08-01T00:58:28.934Z,20.12
2017-08-01T01:00:56.341Z,20.13
2017-08-01T01:03:23.742Z,20.13
2017-08-01T01:05:51.134Z,20.14
2017-08-01T01:08:18.531Z,20.17
2017-08-01T01:10:45.934Z,20.22
2017-08-01T01:13:13.330Z,20.21
2017-08-01T01:15:40.729Z,20.18
2017-08-01T01:18:08.138Z,20.17
2017-08-01T01:20:35.535Z,20.16
2017-08-01T01:23:02.937Z,20.22
2017-08-01T01:25:30.335Z,20.14
2017-08-01T01:27:57.734Z,20.09
2017-08-01T01:30:25.135Z,20.02
2017-08-01T01:32:52.531Z,20.00
2017-08-01T01:35:20.310Z,19.98
2017-08-01T01:37:47.698Z,19.97
2017-08-01T01:40:15.095Z,19.97
2017-08-01T01:42:42.494Z,19.96
2017-08-01T01:45:09.891Z,19.94
2017-08-01T01:47:37.463Z,19.91
2017-08-01T01:50:04.854Z,19.93
2017-08-01T01:52:32.246Z,19.95
2017-08-01T01:54:59.654Z,19.94
2017-08-01T01:57:27.047Z,19.92
2017-08-01T01:59:54.782Z,19.89
2017-08-01T02:02:22.187Z,19.76
2017-08-01T02:04:49.587Z,19.86
2017-08-01T02:07:16.991Z,19.86
2017-08-01T02:09:44.387Z,19.77
2017-08-01T02:12:11.934Z,19.83
2017-08-01T02:14:39.330Z,19.87
2017-08-01T02:17:06.726Z,19.93
2017-08-01T02:19:34.134Z,19.89
2017-08-01T02:22:01.532Z,19.93
2017-08-01T02:24:28.955Z,19.87
2017-08-01T02:26:56.346Z,19.84
2017-08-01T02:29:23.750Z,19.84
2017-08-01T02:31:51.154Z,19.88
2017-08-01T02:34:18.549Z,19.96
2017-08-01T02:36:45.970Z,20.04
2017-08-01T02:39:13.362Z,20.05
2017-08-01T02:41:40.759Z,19.89
2017-08-01T02:44:08.166Z,19.90
2017-08-01T02:46:35.557Z,19.79
2017-08-01T02:49:03.275Z,19.75
2017-08-01T02:51:32.644Z,19.77
2017-08-01T02:54:00.038Z,19.75
2017-08-01T02:56:27.439Z,19.77
2017-08-01T02:58:54.835Z,19.73
2017-08-01T03:01:22.249Z,19.74
2017-08-01T03:03:49.634Z,19.77
2017-08-01T03:06:17.029Z,19.75
2017-08-01T03:08:44.430Z,19.80
2017-08-01T03:11:11.818Z,19.85
2017-08-01T03:13:39.371Z,19.92
2017-08-01T03:16:06.767Z,19.94
2017-08-01T03:18:34.171Z,19.95
2017-08-01T03:21:01.571Z,19.94
2017-08-01T03:23:28.962Z,19.96
2017-08-01T03:25:56.510Z,19.99
2017-08-01T03:28:23.914Z,20.00
2017-08-01T03:30:51.315Z,20.00
2017-08-01T03:33:18.718Z,19.91
2017-08-01T03:35:46.119Z,19.83
2017-08-01T03:38:13.666Z,19.80
2017-08-01T03:40:41.058Z,19.74
2017-08-01T03:43:08.460Z,19.83
2017-08-01T03:45:35.859Z,19.93
2017-08-01T03:48:03.254Z,19.89
2017-08-01T03:50:30.659Z,19.85
2017-08-01T03:52:58.055Z,19.79
2017-08-01T03:55:25.451Z,19.83
2017-08-01T03:57:52.853Z,19.64
2017-08-01T04:00:20.250Z,19.60
2017-08-01T04:02:48.018Z,19.57
2017-08-01T04:05:15.416Z,19.61
2017-08-01T04:07:42.809Z,19.65
2017-08-01T04:10:10.205Z,19.57
2017-08-01T04:12:37.602Z,19.46
2017-08-01T04:15:05.010Z,19.51
2017-08-01T04:17:32.407Z,19.54
2017-08-01T04:19:59.806Z,19.61
2017-08-01T04:22:27.218Z,19.68
2017-08-01T04:24:54.635Z,19.74
2017-08-01T04:27:22.183Z,19.66
2017-08-01T04:29:49.579Z,19.67
2017-08-01T04:32:16.974Z,19.69
2017-08-01T04:34:44.375Z,19.68
2017-08-01T04:37:11.776Z,19.65
2017-08-01T04:39:39.439Z,19.69
2017-08-01T04:42:06.855Z,19.77
2017-08-01T04:44:46.057Z,19.81
2017-08-01T04:47:13.449Z,19.84
2017-08-01T04:49:40.851Z,19.88
2017-08-01T04:52:08.255Z,19.89
2017-08-01T04:54:35.655Z,19.94
2017-08-01T04:57:03.350Z,20.04
2017-08-01T04:59:30.752Z,20.13
2017-08-01T05:01:58.146Z,20.25
2017-08-01T05:04:26.214Z,20.33
2017-08-01T05:06:53.620Z,20.42
2017-08-01T05:09:21.174Z,20.46
2017-08-01T05:11:48.585Z,20.54
2017-08-01T05:14:15.999Z,20.58
2017-08-01T05:16:43.402Z,20.61
2017-08-01T05:19:10.811Z,20.64
2017-08-01T05:21:38.375Z,20.73
2017-08-01T05:24:05.824Z,20.74
2017-08-01T05:26:33.203Z,20.81
2017-08-01T05:29:00.638Z,20.84
2017-08-01T05:31:28.070Z,20.86
2017-08-01T05:33:55.670Z,20.78
2017-08-01T05:36:23.118Z,20.70
2017-08-01T05:38:50.562Z,20.81
2017-08-01T05:41:18.032Z,20.89
2017-08-01T05:43:45.437Z,20.99
2017-08-01T05:46:13.017Z,21.11
2017-08-01T05:48:40.424Z,21.16
2017-08-01T05:51:07.818Z,21.21
2017-08-01T05:53:36.092Z,21.29
2017-08-01T05:56:03.514Z,21.30
2017-08-01T05:58:31.102Z,21.30
2017-08-01T06:00:58.511Z,21.35
2017-08-01T06:03:44.796Z,21.43
2017-08-01T06:06:20.646Z,21.53
2017-08-01T06:08:48.383Z,21.56
2017-08-01T06:11:16.657Z,21.56
2017-08-01T06:13:44.194Z,21.54
2017-08-01T06:16:12.923Z,21.56
2017-08-01T06:18:40.665Z,21.55
2017-08-01T06:21:08.681Z,21.54
2017-08-01T06:23:36.839Z,21.61
2017-08-01T06:26:04.325Z,21.63
2017-08-01T06:28:31.802Z,21.63
2017-08-01T06:30:59.602Z,21.75
2017-08-01T06:33:27.067Z,21.75
2017-08-01T06:35:55.236Z,21.76
2017-08-01T06:38:23.378Z,21.76
2017-08-01T06:40:50.834Z,21.72
2017-08-01T06:43:18.933Z,21.74
2017-08-01T06:45:46.376Z,21.77
2017-08-01T06:48:14.582Z,21.85
2017-08-01T06:50:41.983Z,21.90
2017-08-01T06:53:09.412Z,21.98
2017-08-01T06:55:37.054Z,22.03
2017-08-01T06:58:04.575Z,22.06
2017-08-01T07:00:32.028Z,22.11
2017-08-01T07:03:01.465Z,22.20
2017-08-01T07:05:28.903Z,22.27
2017-08-01T07:07:56.359Z,22.27
2017-08-01T07:10:23.816Z,22.30
2017-08-01T07:12:51.262Z,22.25
2017-08-01T07:15:18.673Z,22.27
2017-08-01T07:17:46.071Z,22.37
2017-08-01T07:20:13.522Z,22.47
2017-08-01T07:22:41.152Z,22.48
2017-08-01T07:25:08.582Z,22.57
2017-08-01T07:27:37.688Z,22.66
2017-08-01T07:30:05.105Z,22.73
2017-08-01T07:32:32.546Z,22.79
2017-08-01T07:35:00.013Z,22.89
2017-08-01T07:37:27.450Z,22.89
2017-08-01T07:39:54.832Z,22.90
2017-08-01T07:42:22.273Z,22.93
2017-08-01T07:44:49.719Z,22.96
2017-08-01T07:47:17.142Z,22.98
2017-08-01T07:49:44.827Z,22.93
2017-08-01T07:52:12.243Z,22.85
2017-08-01T07:54:39.680Z,22.70
2017-08-01T07:57:07.132Z,22.46
2017-08-01T07:59:34.586Z,22.17
2017-08-01T08:02:01.997Z,22.09
2017-08-01T08:04:29.519Z,22.03
2017-08-01T08:06:58.703Z,21.84
2017-08-01T08:09:26.247Z,21.78
2017-08-01T08:11:53.802Z,21.62
2017-08-01T08:14:21.807Z,21.58
2017-08-01T08:16:49.202Z,21.57
2017-08-01T08:19:17.192Z,21.58
2017-08-01T08:21:44.616Z,21.56
2017-08-01T08:24:12.026Z,21.61
2017-08-01T08:26:39.811Z,21.49
2017-08-01T08:29:07.215Z,21.36
2017-08-01T08:31:34.647Z,21.26
2017-08-01T08:34:02.136Z,21.25
2017-08-01T08:36:29.731Z,21.20
2017-08-01T08:38:58.450Z,21.17
2017-08-01T08:41:26.550Z,21.19
2017-08-01T08:43:54.512Z,21.15
2017-08-01T08:46:22.222Z,21.09
2017-08-01T08:48:49.763Z,21.01
2017-08-01T08:51:17.239Z,20.92
2017-08-01T08:53:44.646Z,20.79
2017-08-01T08:56:12.107Z,20.95
2017-08-01T08:58:41.330Z,21.23
2017-08-01T09:01:08.724Z,21.49
2017-08-01T09:03:36.123Z,21.59
2017-08-01T09:06:03.685Z,21.44
2017-08-01T09:08:31.097Z,21.39
2017-08-01T09:10:58.498Z,21.38
2017-08-01T09:13:25.894Z,21.38
2017-08-01T09:15:53.294Z,21.20
2017-08-01T09:18:20.850Z,21.23
2017-08-01T09:20:48.258Z,21.47
2017-08-01T09:23:15.669Z,21.76
2017-08-01T09:25:43.074Z,22.02
2017-08-01T09:28:10.478Z,22.07
2017-08-01T09:30:37.906Z,22.21
2017-08-01T09:33:05.362Z,22.46
2017-08-01T09:35:32.794Z,22.57
2017-08-01T09:38:00.209Z,22.66
2017-08-01T09:40:27.615Z,22.75
2017-08-01T09:42:55.203Z,22.96
2017-08-01T09:45:22.586Z,23.16
2017-08-01T09:47:49.995Z,23.30
2017-08-01T09:50:17.397Z,23.47
2017-08-01T09:52:44.816Z,24.01
2017-08-01T09:55:12.414Z,24.44
2017-08-01T09:57:39.814Z,24.13
2017-08-01T10:00:07.219Z,23.73
2017-08-01T10:02:34.626Z,23.81
2017-08-01T10:05:02.237Z,23.59
2017-08-01T10:07:29.796Z,23.41
2017-08-01T10:09:57.190Z,22.80
2017-08-01T10:12:24.585Z,22.92
2017-08-01T10:14:51.986Z,22.75
2017-08-01T10:17:19.393Z,22.88
2017-08-01T10:19:46.813Z,22.83
2017-08-01T10:22:14.295Z,22.83
2017-08-01T10:24:41.698Z,22.84
2017-08-01T10:27:09.106Z,22.81
2017-08-01T10:29:36.515Z,23.54
2017-08-01T10:32:03.923Z,23.97
2017-08-01T10:34:31.345Z,24.05
2017-08-01T10:36:59.033Z,23.89
2017-08-01T10:39:26.409Z,24.11
2017-08-01T10:41:53.801Z,24.52
2017-08-01T10:44:21.207Z,24.79
2017-08-01T10:46:48.662Z,24.54
2017-08-01T10:49:28.562Z,24.70
2017-08-01T10:51:55.950Z,24.64
2017-08-01T10:54:23.350Z,24.38
2017-08-01T10:56:50.762Z,24.49
2017-08-01T10:59:18.166Z,24.59
2017-08-01T11:01:45.613Z,24.34
2017-08-01T11:04:12.995Z,24.03
2017-08-01T11:06:40.402Z,23.96
2017-08-01T11:09:07.806Z,24.13
2017-08-01T11:11:35.434Z,24.18
2017-08-01T11:14:03.238Z,24.08
2017-08-01T11:16:31.254Z,24.16
2017-08-01T11:18:58.650Z,24.15
2017-08-01T11:21:26.058Z,24.02
2017-08-01T11:23:53.667Z,24.04
2017-08-01T11:26:21.557Z,23.96
2017-08-01T11:28:48.937Z,23.73
2017-08-01T11:31:16.334Z,23.80
2017-08-01T11:33:43.734Z,23.78
2017-08-01T11:36:11.130Z,23.86
2017-08-01T11:38:38.534Z,23.86
2017-08-01T11:41:05.935Z,23.89
2017-08-01T11:43:33.783Z,23.94
2017-08-01T11:46:01.174Z,24.04
2017-08-01T11:48:28.640Z,24.27
2017-08-01T11:50:56.037Z,24.53
2017-08-01T11:53:23.438Z,24.68
2017-08-01T11:55:50.986Z,24.82
2017-08-01T11:58:18.394Z,24.97
2017-08-01T12:00:45.783Z,25.08
2017-08-01T12:03:13.187Z,25.21
2017-08-01T12:05:40.583Z,25.17
2017-08-01T12:08:08.086Z,25.18
2017-08-01T12:10:36.333Z,25.17
2017-08-01T12:13:03.734Z,25.14
2017-08-01T12:15:31.134Z,25.03
2017-08-01T12:17:58.526Z,25.23
2017-08-01T12:20:26.031Z,25.41
2017-08-01T12:22:53.429Z,25.71
2017-08-01T12:25:20.819Z,25.90
2017-08-01T12:27:48.214Z,25.88
2017-08-01T12:30:15.610Z,25.87
2017-08-01T12:32:43.396Z,25.49
2017-08-01T12:35:10.799Z,25.41
2017-08-01T12:37:38.201Z,25.47
2017-08-01T12:40:05.608Z,25.38
2017-08-01T12:42:33.015Z,25.14
2017-08-01T12:45:00.564Z,24.94
2017-08-01T12:47:27.971Z,25.04
2017-08-01T12:49:55.367Z,25.03
2017-08-01T12:52:22.778Z,25.09
2017-08-01T12:54:50.180Z,25.18
2017-08-01T12:57:17.740Z,25.09
2017-08-01T12:59:45.186Z,25.32
2017-08-01T13:02:12.587Z,25.23
2017-08-01T13:04:39.996Z,25.05
2017-08-01T13:07:07.399Z,25.12
2017-08-01T13:09:34.956Z,25.18
2017-08-01T13:12:02.352Z,25.24
2017-08-01T13:14:29.759Z,25.34
2017-08-01T13:16:57.164Z,25.37
2017-08-01T13:19:24.567Z,25.33
2017-08-01T13:21:51.991Z,25.40
2017-08-01T13:24:19.399Z,25.46
2017-08-01T13:26:46.799Z,25.54
2017-08-01T13:29:14.209Z,25.37
2017-08-01T13:31:41.607Z,25.39
2017-08-01T13:34:09.051Z,25.28
2017-08-01T13:36:36.455Z,25.28
2017-08-01T13:39:03.858Z,25.41
2017-08-01T13:41:31.263Z,25.40
2017-08-01T13:43:58.671Z,25.25
2017-08-01T13:46:26.120Z,25.34
2017-08-01T13:48:53.515Z,25.28
2017-08-01T13:51:20.943Z,25.20
2017-08-01T13:53:51.867Z,25.16
2017-08-01T13:56:19.263Z,25.02
2017-08-01T13:58:46.820Z,25.04
2017-08-01T14:01:14.239Z,25.08
2017-08-01T14:03:41.662Z,25.23
2017-08-01T14:06:09.066Z,25.20
2017-08-01T14:08:36.463Z,25.16
2017-08-01T14:11:03.975Z,25.09
2017-08-01T14:13:31.424Z,25.25
2017-08-01T14:15:58.842Z,25.30
2017-08-01T14:18:26.263Z,25.34
2017-08-01T14:20:53.687Z,24.96
2017-08-01T14:23:21.098Z,24.74
2017-08-01T14:25:48.519Z,24.90
2017-08-01T14:28:15.940Z,24.82
2017-08-01T14:30:43.423Z,24.73
2017-08-01T14:33:10.875Z,24.57
2017-08-01T14:35:38.544Z,24.67
2017-08-01T14:38:05.944Z,24.81
2017-08-01T14:40:33.351Z,24.99
2017-08-01T14:43:00.759Z,25.08
2017-08-01T14:45:28.160Z,25.12
2017-08-01T14:47:55.600Z,25.21
2017-08-01T14:50:23.000Z,25.25
2017-08-01T14:52:50.408Z,25.35
2017-08-01T14:55:17.811Z,25.44
2017-08-01T14:57:45.211Z,25.54
2017-08-01T15:00:13.095Z,25.35
2017-08-01T15:02:40.491Z,25.29
2017-08-01T15:05:07.891Z,25.26
2017-08-01T15:07:35.299Z,25.41
2017-08-01T15:10:02.704Z,25.49
2017-08-01T15:12:30.131Z,25.79
2017-08-01T15:14:57.526Z,26.10
2017-08-01T15:17:24.948Z,26.18
2017-08-01T15:19:52.354Z,26.33
2017-08-01T15:22:19.762Z,26.32
2017-08-01T15:24:55.045Z,26.31
2017-08-01T15:27:22.465Z,26.30
2017-08-01T15:29:49.891Z,26.38
2017-08-01T15:32:17.303Z,26.00
2017-08-01T15:34:44.716Z,26.12
2017-08-01T15:37:12.139Z,26.22
2017-08-01T15:39:39.547Z,26.14
2017-08-01T15:42:06.983Z,26.01
2017-08-01T15:44:34.491Z,25.97
2017-08-01T15:47:01.899Z,25.83
2017-08-01T15:49:29.404Z,25.68
2017-08-01T15:51:56.806Z,25.77
2017-08-01T15:54:24.207Z,25.59
2017-08-01T15:56:51.610Z,25.56
2017-08-01T15:59:19.016Z,25.74
2017-08-01T16:01:46.419Z,25.90
2017-08-01T16:04:13.820Z,26.02
2017-08-01T16:06:41.606Z,26.03
2017-08-01T16:09:09.009Z,26.19
2017-08-01T16:11:36.414Z,26.33
2017-08-01T16:14:03.823Z,26.47
2017-08-01T16:16:31.226Z,26.13
2017-08-01T16:18:58.952Z,26.11
2017-08-01T16:21:26.348Z,26.10
2017-08-01T16:23:53.748Z,25.95
2017-08-01T16:26:21.146Z,25.90
2017-08-01T16:28:48.551Z,25.86
2017-08-01T16:31:16.063Z,25.69
2017-08-01T16:33:43.459Z,25.57
2017-08-01T16:36:11.048Z,25.25
2017-08-01T16:38:38.469Z,25.07
2017-08-01T16:41:05.860Z,25.04
2017-08-01T16:43:33.670Z,24.79
2017-08-01T16:46:01.087Z,24.71
2017-08-01T16:48:28.538Z,24.42
2017-08-01T16:50:55.943Z,24.60
2017-08-01T16:53:23.400Z,24.74
2017-08-01T16:55:50.843Z,24.67
2017-08-01T16:58:18.239Z,24.69
2017-08-01T17:00:45.639Z,24.76
2017-08-01T17:03:13.043Z,24.65
2017-08-01T17:05:40.457Z,24.61
2017-08-01T17:08:07.999Z,24.57
2017-08-01T17:10:36.308Z,24.49
2017-08-01T17:13:03.702Z,24.56
2017-08-01T17:15:31.107Z,24.28
2017-08-01T17:17:58.505Z,24.27
2017-08-01T17:20:26.898Z,24.28
2017-08-01T17:22:54.298Z,24.20
2017-08-01T17:25:21.702Z,24.24
2017-08-01T17:27:49.118Z,24.36
2017-08-01T17:30:16.521Z,24.30
2017-08-01T17:32:43.926Z,24.28
2017-08-01T17:35:11.330Z,24.33
2017-08-01T17:37:38.722Z,24.13
2017-08-01T17:40:06.118Z,24.10
2017-08-01T17:42:33.518Z,24.11
2017-08-01T17:45:00.975Z,24.10
2017-08-01T17:47:28.371Z,24.17
2017-08-01T17:49:55.771Z,24.27
2017-08-01T17:52:23.171Z,24.28
2017-08-01T17:54:50.569Z,24.28
2017-08-01T17:57:17.998Z,24.27
2017-08-01T17:59:45.390Z,24.31
2017-08-01T18:02:12.786Z,24.29
2017-08-01T18:04:40.194Z,24.36
2017-08-01T18:07:07.593Z,24.39
2017-08-01T18:09:35.039Z,24.39
2017-08-01T18:12:02.448Z,24.35
2017-08-01T18:14:29.835Z,24.32
2017-08-01T18:16:58.160Z,24.25
2017-08-01T18:19:25.563Z,24.17
2017-08-01T18:21:53.014Z,24.22
2017-08-01T18:24:20.414Z,24.23
2017-08-01T18:26:47.817Z,24.18
2017-08-01T18:29:15.326Z,24.18
2017-08-01T18:31:42.726Z,24.18
2017-08-01T18:34:10.131Z,24.10
2017-08-01T18:36:37.535Z,23.94
2017-08-01T18:39:04.935Z,23.96
2017-08-01T18:41:32.340Z,23.97
2017-08-01T18:43:59.765Z,23.92
2017-08-01T18:46:27.163Z,23.82
2017-08-01T18:48:54.571Z,23.69
2017-08-01T18:51:22.017Z,23.74
2017-08-01T18:53:49.420Z,23.59
2017-08-01T18:56:16.843Z,23.56
2017-08-01T18:58:44.242Z,23.58
2017-08-01T19:01:11.695Z,23.60
2017-08-01T19:03:39.101Z,23.56
2017-08-01T19:06:06.508Z,23.49
2017-08-01T19:08:33.907Z,23.50
2017-08-01T19:11:01.410Z,23.42
2017-08-01T19:13:28.926Z,23.32
2017-08-01T19:15:56.326Z,23.32
2017-08-01T19:18:23.722Z,23.20
2017-08-01T19:20:51.222Z,23.06
2017-08-01T19:23:18.622Z,22.92
2017-08-01T19:25:46.054Z,22.79
2017-08-01T19:28:13.454Z,22.78
2017-08-01T19:30:40.855Z,22.70
2017-08-01T19:33:08.254Z,22.64
2017-08-01T19:35:35.645Z,22.52
2017-08-01T19:38:03.042Z,22.63
2017-08-01T19:40:30.447Z,22.66
2017-08-01T19:42:57.881Z,22.67
2017-08-01T19:45:25.515Z,22.59
2017-08-01T19:47:53.690Z,22.69
2017-08-01T19:50:21.090Z,22.67
2017-08-01T19:52:48.492Z,22.59
2017-08-01T19:55:15.898Z,22.53
2017-08-01T19:57:43.295Z,22.46
2017-08-01T20:00:10.687Z,22.23
2017-08-01T20:02:38.087Z,22.12
2017-08-01T20:05:05.487Z,21.79
2017-08-01T20:07:32.924Z,21.75
2017-08-01T20:10:00.327Z,21.72
2017-08-01T20:12:27.722Z,21.57
2017-08-01T20:14:55.124Z,21.60
2017-08-01T20:17:22.522Z,21.65
2017-08-01T20:19:49.927Z,21.52
2017-08-01T20:22:17.318Z,21.43
2017-08-01T20:24:44.748Z,21.39
2017-08-01T20:27:12.179Z,21.23
2017-08-01T20:29:39.624Z,21.24
2017-08-01T20:32:07.026Z,21.21
2017-08-01T20:34:34.422Z,21.10
2017-08-01T20:37:01.827Z,20.97
2017-08-01T20:39:29.226Z,20.86
2017-08-01T20:41:56.635Z,20.79
2017-08-01T20:44:24.044Z,20.76
2017-08-01T20:46:51.459Z,20.72
2017-08-01T20:49:19.229Z,20.76
2017-08-01T20:51:46.659Z,20.64
2017-08-01T20:54:14.068Z,20.63
2017-08-01T20:56:41.500Z,20.62
2017-08-01T20:59:08.924Z,20.69
2017-08-01T21:01:36.507Z,20.66
2017-08-01T21:04:03.895Z,20.63
2017-08-01T21:06:31.332Z,20.58
2017-08-01T21:08:58.743Z,20.53
2017-08-01T21:11:26.162Z,20.48
2017-08-01T21:13:53.710Z,20.42
2017-08-01T21:16:21.093Z,20.38
2017-08-01T21:18:48.494Z,20.35
2017-08-01T21:21:15.906Z,20.28
2017-08-01T21:23:43.319Z,20.19
2017-08-01T21:26:10.874Z,20.11
2017-08-01T21:28:38.277Z,20.05
2017-08-01T21:31:05.679Z,20.01
2017-08-01T21:33:33.083Z,20.02
2017-08-01T21:36:00.507Z,19.97
2017-08-01T21:38:27.958Z,19.94
2017-08-01T21:40:55.363Z,19.87
2017-08-01T21:43:22.765Z,19.88
2017-08-01T21:45:50.174Z,19.85
2017-08-01T21:48:17.566Z,19.79
2017-08-01T21:50:45.130Z,19.75
2017-08-01T21:53:12.549Z,19.73
2017-08-01T21:55:39.994Z,19.71
2017-08-01T21:58:07.410Z,19.68
2017-08-01T22:00:34.823Z,19.66
2017-08-01T22:03:02.379Z,19.63
2017-08-01T22:05:29.782Z,19.59
2017-08-01T22:07:57.178Z,19.56
2017-08-01T22:10:24.587Z,19.54
2017-08-01T22:12:52.001Z,19.48
2017-08-01T22:15:19.623Z,19.42
2017-08-01T22:17:47.022Z,19.40
2017-08-01T22:20:14.435Z,19.30
2017-08-01T22:22:41.854Z,19.33
2017-08-01T22:25:09.255Z,19.27
2017-08-01T22:27:36.651Z,19.23
2017-08-01T22:30:04.079Z,19.21
2017-08-01T22:32:31.489Z,19.21
2017-08-01T22:34:58.902Z,19.18
2017-08-01T22:37:26.307Z,19.13
2017-08-01T22:39:53.711Z,19.09
2017-08-01T22:42:21.111Z,19.05
2017-08-01T22:44:48.522Z,19.02
2017-08-01T22:47:15.914Z,18.97
2017-08-01T22:49:43.323Z,18.94
2017-08-01T22:52:10.731Z,18.91
2017-08-01T22:54:38.135Z,18.90
2017-08-01T22:57:05.531Z,18.87
2017-08-01T22:59:32.958Z,18.81
2017-08-01T23:02:00.391Z,18.77
2017-08-01T23:04:27.801Z,18.70
2017-08-01T23:06:55.202Z,18.67
2017-08-01T23:09:22.599Z,18.62
2017-08-01T23:11:49.998Z,18.66
2017-08-01T23:14:17.580Z,18.61
2017-08-01T23:16:44.963Z,18.59
2017-08-01T23:19:12.370Z,18.53
2017-08-01T23:21:39.791Z,18.49
2017-08-01T23:24:07.197Z,18.50
2017-08-01T23:26:34.754Z,18.49
2017-08-01T23:29:02.162Z,18.46
2017-08-01T23:31:29.609Z,18.43
2017-08-01T23:33:57.022Z,18.39
2017-08-01T23:36:24.427Z,18.36
2017-08-01T23:38:52.007Z,18.35
2017-08-01T23:41:19.422Z,18.32
2017-08-01T23:43:46.832Z,18.30
2017-08-01T23:46:14.255Z,18.29
2017-08-01T23:48:41.651Z,18.29
2017-08-01T23:51:09.075Z,18.27
2017-08-01T23:53:36.471Z,18.22
2017-08-01T23:56:03.882Z,18.10
2017-08-01T23:58:31.296Z,18.10
